Terminal Aerodrome Forecast
Issued by NWS Charleston, WV

Current Version | Previous Version | Graphics & Text | Print | Product List | Glossary On
Versions: 1 2 3 4 5 6 7 8 9 10 11 12 13 14 15 16 17 18 19
000
FTUS41 KRLX 280500
TAFPKB
TAF
KPKB 280527Z 2806/2906 20005KT P6SM OVC040
     FM280900 24006G15KT 4SM -SHRA BR BKN025 OVC035
     FM281100 VRB03KT 2SM -SHRA BR OVC008
     FM282000 36004KT 6SM -RA BR OVC015=

USA.gov is the U.S. government's official web portal to all federal, state and local government web resources and services.